首页
METAR-TAF:

METAR-TAF

机场 :

McChord Air Force Base

塔科马, 华盛顿, 美国

纬度: 47-09N, 经度: 122-29W, 海拔: 98米

当前天气观测

该预报发布于29分钟前的02:58 UTC
风速7节,风向南转西南
温度 9°C
湿度 100%
气压 1015 hPa
能見度: 16.1公里
阴天层高于3100英尺

METAR: KTCM 230258Z AUTO 21007KT 10SM OVC031 09/09 A2997 RMK AO2 RAE20RAB38E47 SLPNO P0001 60010 T00860086 52005 $

时间: 19:27 (03:27 UTC)

预报

该预报发布于6小时和27分钟前的21:00 UTC
预报有效从22日的 21点(UTC)到 24日的 03点(UTC)
风速9节,风向东转东南
能見度: 8000
多云层高于2000英尺
阴天层高于4000英尺
小雨
短暂存在
从 22日的 21点(UTC)到 23日的 03点(UTC)
风速12节,风向,有时为18节阵风
成为
从 23日的 04点(UTC)到 23日的 05点(UTC)
风速9节,风向
能見度: 8000
多云层高于2000英尺
阴天层高于3000英尺
小阵雨

TAF: KTCM 222100Z 2221/2403 12009KT 8000 -RA BKN020 OVC040 620509 QNH2996INS TEMPO 2221/2303 19012G18KT BECMG 2304/2305 17009KT 8000 -SHRA BKN020 OVC030 610609 QNH2990INS TX11/2320Z TN07/2221Z

超过4000个机场的气象观测和天气预报(METAR&TAF报告)。

可查询的气象台以黄色和红色小点在地图上表示。

将鼠标移到小点上方,可查看气象台名称。

然后点击查看天气观测和预报。

如需切换地图:点击带黑十字的绿色按钮放大地图;点击带横线的绿色按钮缩小地图;或者点击绿色箭头查看邻近地区的地图。


METAR-TAF: